createdAt,value
2022-10-23T00:04:57.112Z,13.64
2022-10-23T00:09:58.339Z,13.56
2022-10-23T00:14:59.887Z,13.71
2022-10-23T00:20:01.122Z,13.53
2022-10-23T00:25:02.344Z,13.48
2022-10-23T00:30:03.607Z,13.55
2022-10-23T00:35:04.817Z,13.62
2022-10-23T00:40:06.542Z,13.60
2022-10-23T00:45:07.813Z,13.74
2022-10-23T00:50:09.041Z,13.75
2022-10-23T00:55:10.314Z,13.82
2022-10-23T01:00:11.523Z,13.69
2022-10-23T01:05:12.767Z,13.77
2022-10-23T01:10:14.007Z,13.74
2022-10-23T01:15:15.265Z,13.69
2022-10-23T01:20:16.707Z,13.49
2022-10-23T01:25:17.947Z,13.38
2022-10-23T01:30:19.162Z,13.44
2022-10-23T01:35:20.381Z,13.60
2022-10-23T01:40:21.597Z,13.50
2022-10-23T01:45:22.909Z,13.34
2022-10-23T01:50:24.134Z,13.11
2022-10-23T01:55:25.331Z,13.08
2022-10-23T02:00:26.543Z,13.05
2022-10-23T02:05:27.764Z,13.02
2022-10-23T02:10:28.968Z,13.01
2022-10-23T02:15:30.188Z,13.13
2022-10-23T02:20:31.467Z,12.89
2022-10-23T02:25:32.670Z,13.24
2022-10-23T02:30:34.797Z,12.93
2022-10-23T02:35:36.339Z,12.92
2022-10-23T02:40:37.958Z,12.95
2022-10-23T02:50:40.826Z,12.80
2022-10-23T02:55:42.350Z,12.98
2022-10-23T03:00:43.925Z,13.13
2022-10-23T03:05:45.647Z,13.34
2022-10-23T03:15:48.527Z,13.07
2022-10-23T03:20:49.869Z,12.93
2022-10-23T03:25:51.368Z,12.87
2022-10-23T03:30:53.370Z,13.08
2022-10-23T03:35:55.097Z,12.89
2022-10-23T03:40:56.800Z,12.73
2022-10-23T03:45:58.377Z,12.74
2022-10-23T03:50:59.887Z,12.69
2022-10-23T03:56:01.704Z,12.82
2022-10-23T04:01:03.327Z,13.02
2022-10-23T04:06:05.058Z,12.64
2022-10-23T04:11:12.733Z,12.49
2022-10-23T04:16:14.648Z,12.31
2022-10-23T04:21:16.118Z,12.36
2022-10-23T04:26:17.361Z,12.58
2022-10-23T04:31:18.609Z,12.58
2022-10-23T04:36:19.954Z,12.47
2022-10-23T04:41:21.364Z,12.38
2022-10-23T04:46:22.648Z,11.94
2022-10-23T04:51:23.915Z,12.17
2022-10-23T04:56:25.214Z,12.10
2022-10-23T05:01:26.533Z,11.78
2022-10-23T05:06:27.858Z,11.75
2022-10-23T05:11:29.080Z,11.93
2022-10-23T05:16:30.454Z,12.07
2022-10-23T05:21:31.912Z,12.15
2022-10-23T05:26:33.339Z,12.30
2022-10-23T05:31:34.625Z,12.24
2022-10-23T05:36:36.025Z,12.16
2022-10-23T05:41:37.531Z,12.09
2022-10-23T05:46:38.917Z,12.23
2022-10-23T05:51:40.434Z,12.25
2022-10-23T05:56:41.939Z,12.38
2022-10-23T06:01:43.478Z,12.22
2022-10-23T06:06:45.131Z,12.36
2022-10-23T06:11:46.727Z,12.21
2022-10-23T06:16:48.623Z,12.47
2022-10-23T06:21:50.346Z,12.39
2022-10-23T06:26:53.843Z,12.28
2022-10-23T06:31:55.869Z,12.24
2022-10-23T06:36:58.123Z,12.22
2022-10-23T06:41:59.998Z,12.09
2022-10-23T06:47:02.799Z,12.09
2022-10-23T06:52:04.482Z,12.41
2022-10-23T06:57:06.368Z,12.52
2022-10-23T07:02:08.082Z,12.05
2022-10-23T07:07:13.267Z,12.25
2022-10-23T07:12:15.464Z,12.16
2022-10-23T07:17:17.238Z,12.00
2022-10-23T07:22:19.187Z,12.04
2022-10-23T07:27:20.956Z,12.18
2022-10-23T07:32:24.335Z,12.25
2022-10-23T07:37:26.104Z,11.79
2022-10-23T07:42:27.926Z,11.53
2022-10-23T07:47:30.191Z,11.69
2022-10-23T07:52:35.083Z,11.76
2022-10-23T07:57:38.176Z,11.99
2022-10-23T08:02:40.021Z,11.99
2022-10-23T08:07:42.095Z,12.11
2022-10-23T08:12:43.535Z,12.26
2022-10-23T08:17:45.144Z,12.43
2022-10-23T08:22:46.856Z,12.56
2022-10-23T08:27:50.365Z,12.29
2022-10-23T08:32:52.521Z,12.45
2022-10-23T08:37:53.768Z,12.15
2022-10-23T08:42:55.006Z,12.21
2022-10-23T08:47:57.425Z,12.53
2022-10-23T08:52:58.787Z,12.15
2022-10-23T08:58:00.033Z,12.16
2022-10-23T09:03:01.223Z,12.31
2022-10-23T09:08:02.504Z,12.19
2022-10-23T09:13:03.964Z,12.19
2022-10-23T09:18:06.808Z,12.18
2022-10-23T09:23:08.147Z,12.62
2022-10-23T09:33:28.169Z,12.55
2022-10-23T09:38:29.481Z,12.42
2022-10-23T09:43:30.869Z,12.68
2022-10-23T09:48:32.183Z,12.73
2022-10-23T09:53:33.403Z,13.06
2022-10-23T09:58:34.744Z,13.15
2022-10-23T10:03:36.021Z,13.23
2022-10-23T10:08:37.644Z,13.32
2022-10-23T10:13:39.546Z,13.42
2022-10-23T10:18:40.887Z,13.63
2022-10-23T10:23:42.263Z,13.50
2022-10-23T10:28:43.587Z,13.69
2022-10-23T10:33:44.799Z,13.82
2022-10-23T10:38:46.061Z,13.95
2022-10-23T10:43:47.278Z,14.35
2022-10-23T10:48:48.538Z,14.54
2022-10-23T10:53:49.799Z,14.65
2022-10-23T10:58:51.041Z,14.69
2022-10-23T11:03:52.281Z,15.06
2022-10-23T11:08:57.915Z,15.17
2022-10-23T11:14:10.418Z,15.19
2022-10-23T11:19:14.088Z,15.40
2022-10-23T11:24:15.586Z,15.36
2022-10-23T11:29:18.867Z,15.63
2022-10-23T11:34:20.098Z,15.75
2022-10-23T11:39:21.343Z,15.72
2022-10-23T11:44:22.555Z,16.48
2022-10-23T11:49:24.147Z,17.08
2022-10-23T11:54:27.095Z,17.03
2022-10-23T11:59:28.421Z,17.18
2022-10-23T12:04:29.931Z,17.02
2022-10-23T12:09:31.276Z,17.24
2022-10-23T12:14:32.587Z,17.42
2022-10-23T12:19:33.867Z,17.69
2022-10-23T12:24:39.597Z,17.44
2022-10-23T12:29:41.837Z,17.38
2022-10-23T12:34:43.057Z,17.66
2022-10-23T12:39:44.382Z,18.15
2022-10-23T12:44:45.573Z,18.40
2022-10-23T12:49:46.790Z,18.12
2022-10-23T12:54:50.623Z,18.12
2022-10-23T12:59:51.831Z,18.32
2022-10-23T13:04:53.064Z,19.29
2022-10-23T13:09:54.331Z,19.09
2022-10-23T13:14:55.572Z,19.30
2022-10-23T13:19:56.796Z,19.17
2022-10-23T13:24:58.148Z,18.86
2022-10-23T13:29:59.397Z,18.50
2022-10-23T13:35:20.811Z,18.37
2022-10-23T13:40:23.592Z,18.40
2022-10-23T13:45:24.843Z,18.12
2022-10-23T13:50:26.046Z,18.11
2022-10-23T13:55:28.278Z,17.97
2022-10-23T14:00:29.502Z,18.14
2022-10-23T14:05:30.779Z,18.17
2022-10-23T14:10:31.982Z,18.18
2022-10-23T14:15:33.215Z,18.25
2022-10-23T14:20:34.564Z,17.92
2022-10-23T14:25:35.812Z,17.90
2022-10-23T14:30:37.458Z,17.95
2022-10-23T14:35:38.666Z,18.01
2022-10-23T14:40:39.872Z,18.42
2022-10-23T14:45:41.140Z,18.27
2022-10-23T14:50:42.359Z,18.21
2022-10-23T14:55:43.586Z,18.16
2022-10-23T15:00:44.791Z,18.08
2022-10-23T15:05:45.993Z,17.82
2022-10-23T15:10:47.211Z,17.71
2022-10-23T15:15:48.441Z,17.75
2022-10-23T15:20:49.640Z,17.69
2022-10-23T15:25:50.847Z,17.51
2022-10-23T15:30:52.060Z,17.64
2022-10-23T15:35:53.294Z,17.58
2022-10-23T15:40:54.547Z,17.62
2022-10-23T15:45:55.857Z,17.67
2022-10-23T15:50:57.199Z,17.62
2022-10-23T15:55:58.836Z,17.55
2022-10-23T16:01:02.964Z,17.39
2022-10-23T16:06:04.267Z,17.32
2022-10-23T16:11:05.527Z,17.02
2022-10-23T16:16:06.740Z,17.03
2022-10-23T16:21:07.970Z,17.03
2022-10-23T16:26:09.433Z,16.94
2022-10-23T16:31:10.688Z,16.80
2022-10-23T16:36:11.899Z,16.75
2022-10-23T16:41:13.120Z,16.81
2022-10-23T16:46:14.367Z,16.71
2022-10-23T16:51:15.584Z,16.68
2022-10-23T16:56:16.836Z,16.57
2022-10-23T17:01:18.124Z,16.53
2022-10-23T17:06:19.443Z,16.39
2022-10-23T17:11:20.649Z,16.31
2022-10-23T17:16:21.991Z,16.32
2022-10-23T17:21:23.239Z,16.33
2022-10-23T17:26:24.499Z,16.25
2022-10-23T17:31:25.715Z,16.03
2022-10-23T17:36:26.929Z,15.91
2022-10-23T17:41:28.126Z,16.00
2022-10-23T17:46:29.357Z,15.93
2022-10-23T17:51:30.579Z,15.75
2022-10-23T17:56:31.783Z,15.73
2022-10-23T18:01:33.142Z,15.62
2022-10-23T18:06:34.432Z,15.69
2022-10-23T18:11:35.662Z,15.73
2022-10-23T18:16:37.195Z,15.81
2022-10-23T18:21:40.051Z,15.78
2022-10-23T18:26:41.278Z,15.66
2022-10-23T18:31:42.489Z,15.72
2022-10-23T18:36:43.770Z,15.71
2022-10-23T18:41:45.041Z,15.72
2022-10-23T18:46:46.258Z,15.68
2022-10-23T18:51:49.715Z,15.60
2022-10-23T18:56:51.018Z,15.26
2022-10-23T19:01:52.496Z,15.38
2022-10-23T19:06:53.891Z,15.22
2022-10-23T19:11:55.154Z,15.35
2022-10-23T19:16:56.366Z,15.44
2022-10-23T19:21:57.631Z,15.53
2022-10-23T19:26:58.841Z,15.58
2022-10-23T19:32:00.123Z,15.67
2022-10-23T19:37:01.428Z,15.69
2022-10-23T19:42:02.839Z,15.80
2022-10-23T19:47:04.261Z,15.79
2022-10-23T19:52:05.488Z,15.65
2022-10-23T19:57:06.761Z,15.56
2022-10-23T20:02:08.186Z,15.55
2022-10-23T20:07:09.684Z,15.37
2022-10-23T20:12:11.139Z,15.59
2022-10-23T20:17:12.509Z,15.70
2022-10-23T20:22:13.780Z,15.59
2022-10-23T20:27:15.228Z,15.60
2022-10-23T20:32:16.791Z,15.27
2022-10-23T20:37:18.072Z,15.22
2022-10-23T20:42:19.317Z,14.95
2022-10-23T20:47:20.607Z,15.12
2022-10-23T20:52:25.068Z,15.36
2022-10-23T20:57:26.302Z,15.02
2022-10-23T21:02:27.606Z,15.43
2022-10-23T21:07:28.978Z,15.48
2022-10-23T21:12:30.267Z,15.50
2022-10-23T21:17:35.345Z,15.06
2022-10-23T21:22:37.194Z,14.84
2022-10-23T21:27:38.522Z,14.80
2022-10-23T21:32:40.327Z,14.79
2022-10-23T21:37:41.650Z,15.00
2022-10-23T21:42:43.117Z,15.17
2022-10-23T21:47:44.532Z,15.25
2022-10-23T21:52:46.339Z,15.02
2022-10-23T21:57:47.814Z,15.18
2022-10-23T22:02:49.199Z,15.41
2022-10-23T22:07:50.572Z,15.41
2022-10-23T22:12:51.992Z,15.44
2022-10-23T22:17:53.264Z,15.36
2022-10-23T22:22:54.498Z,15.47
2022-10-23T22:27:55.746Z,15.32
2022-10-23T22:32:57.033Z,15.49
2022-10-23T22:37:58.821Z,15.32
2022-10-23T22:43:00.179Z,15.33
2022-10-23T22:48:01.433Z,15.31
2022-10-23T22:53:02.704Z,15.30
2022-10-23T22:58:04.054Z,15.19
2022-10-23T23:03:05.357Z,15.09
2022-10-23T23:08:06.628Z,15.15
2022-10-23T23:13:07.859Z,14.98
2022-10-23T23:18:09.204Z,14.90
2022-10-23T23:23:11.726Z,14.84
2022-10-23T23:28:12.975Z,14.70
2022-10-23T23:33:14.204Z,14.63
2022-10-23T23:38:15.653Z,14.80
2022-10-23T23:43:16.914Z,14.60
2022-10-23T23:48:18.144Z,14.42
2022-10-23T23:53:19.433Z,14.51
2022-10-23T23:58:20.644Z,14.54
